Accueil
METAR-TAF:

METAR-TAF

Aéroports :

Aéroport international de Wattay

Vientiane, Laos

latitude: 17-57N, longitude: 102-34E, altitude: 171 m

Observation

Le bulletin a été fait il y a 31 minutes, à 03:30 UTC
Vent 2 kt de ouest/nord-ouest
Température 29°C
Humidité 84%
Pression 1010 hPa
Visibilité: 8000 m
Nuages épars à une hauteur de 1600 ft
Nuages fragmentés à une hauteur de 4000 ft

METAR: VLVT 260330Z 30002KT 8000 SCT016 BKN040 29/26 Q1010 NOSIG

Heure: 11:01 (04:01 UTC)

Prévision

Le bulletin a été fait il y a 5 heures et 1 minutes, à 23:00 UTC
Prévision valable du 26 à 00 UTC au 26 à 24 UTC
Vent 4 kt de nord/nord-ouest
Visibilité 10 km ou plus
Nuages épars à une hauteur de 1600 ft
Nuages épars à une hauteur de 20000 ft

TAF: VLVT 252300Z 2600/2624 34004KT 9999 SCT016 SCT200

Observations et prévisions météorologiques de plus de 4000 aéroports (messages METAR et TAF).

Les stations disponibles sont représentées par des disques jaunes et rouges sur la carte.

Passer la souris dessus pour voir le nom de la station.

Cliquer dessus pour voir les observations et prévisions météorologiques.

Pour changer de carte: cliquez sur les boutons verts avec une croix noire pour zoomer, sur le bouton vert avec un tiret pour effectuer un zoom arrière, ou sur les flèches vertes pour les cartes adjacentes.


METAR-TAF: